Time,TemperatureF,DewpointF,PressureIn,WindDirection,WindDirectionDegrees,WindSpeedMPH,WindSpeedGustMPH,Humidity,HourlyPrecipIn,Conditions,Clouds,dailyrainin,SoftwareType,DateUTC
2013-05-19 00:01:00,43.7,38.6,17.72,SSW,193,0.0,0.0,82,0.00,,BKN120,0.00,VWS V14.01,2013-05-19 04:01:00,
2013-05-19 00:06:00,43.7,38.6,17.72,SSW,193,0.0,0.0,82,0.00,,BKN120,0.00,VWS V14.01,2013-05-19 04:06:00,
2013-05-19 00:11:00,43.7,38.6,17.72,SSW,193,0.0,0.0,82,0.00,,BKN120,0.00,VWS V14.01,2013-05-19 04:11:00,
2013-05-19 00:16:00,43.7,38.9,17.72,SSW,193,0.0,0.0,83,0.00,,BKN120,0.00,VWS V14.01,2013-05-19 04:16:00,
2013-05-19 00:21:00,43.7,38.9,17.72,SSW,193,0.0,0.0,83,0.00,,BKN120,0.00,VWS V14.01,2013-05-19 04:21:00,
2013-05-19 00:26:00,43.5,38.7,17.72,SSW,193,0.0,0.0,83,0.00,,BKN120,0.00,VWS V14.01,2013-05-19 04:26:00,
2013-05-19 00:31:00,43.3,38.5,17.72,SSW,193,0.0,0.0,83,0.00,,BKN120,0.00,VWS V14.01,2013-05-19 04:31:00,
2013-05-19 00:36:00,43.3,38.8,17.72,SSW,193,0.0,0.0,84,0.00,,BKN120,0.00,VWS V14.01,2013-05-19 04:36:00,
2013-05-19 00:41:00,43.3,38.8,17.72,SSW,193,0.0,0.0,84,0.00,,BKN120,0.00,VWS V14.01,2013-05-19 04:41:00,
2013-05-19 00:46:00,43.2,38.7,17.72,SSW,193,0.0,0.0,84,0.00,,BKN120,0.00,VWS V14.01,2013-05-19 04:46:00,
2013-05-19 00:51:00,43.2,38.7,17.72,SSW,193,0.0,0.0,84,0.00,,BKN120,0.00,VWS V14.01,2013-05-19 04:51:00,
2013-05-19 00:56:00,43.2,38.7,17.72,SSW,193,0.0,0.0,84,0.00,,BKN120,0.00,VWS V14.01,2013-05-19 04:56:00,
2013-05-19 01:01:00,43.0,38.5,17.72,SSW,193,0.0,0.0,84,0.00,,BKN120,0.00,VWS V14.01,2013-05-19 05:01:00,
2013-05-19 01:06:00,43.0,38.8,17.72,SSW,193,0.0,0.0,85,0.00,,BKN120,0.00,VWS V14.01,2013-05-19 05:06:00,
2013-05-19 01:11:00,43.0,38.8,17.72,SSW,193,0.0,0.0,85,0.00,,BKN120,0.00,VWS V14.01,2013-05-19 05:11:00,
2013-05-19 01:16:00,42.8,38.6,17.72,SSW,193,0.0,0.0,85,0.00,,BKN120,0.00,VWS V14.01,2013-05-19 05:16:00,
2013-05-19 01:21:00,42.6,38.4,17.72,SSW,193,0.0,0.0,85,0.00,,BKN120,0.00,VWS V14.01,2013-05-19 05:21:00,
2013-05-19 01:26:00,42.4,38.3,17.72,SSW,193,0.0,0.0,85,0.00,,BKN120,0.00,VWS V14.01,2013-05-19 05:26:00,
2013-05-19 01:31:00,42.3,38.1,17.72,SSW,193,0.0,0.0,85,0.00,,BKN120,0.00,VWS V14.01,2013-05-19 05:31:00,
2013-05-19 01:36:00,42.3,38.4,17.72,SSW,193,0.0,0.0,86,0.00,,BKN120,0.00,VWS V14.01,2013-05-19 05:36:00,
2013-05-19 01:41:00,42.3,38.4,17.72,SSW,193,0.0,0.0,86,0.00,,BKN120,0.00,VWS V14.01,2013-05-19 05:41:00,
2013-05-19 01:46:00,42.4,38.6,17.72,SSW,193,0.0,0.0,86,0.00,,BKN120,0.00,VWS V14.01,2013-05-19 05:46:00,
2013-05-19 01:51:00,42.6,38.7,17.72,SSW,193,0.0,0.0,86,0.00,,BKN120,0.00,VWS V14.01,2013-05-19 05:51:00,
2013-05-19 01:56:00,42.8,38.9,17.72,SSW,193,0.0,0.0,86,0.00,,BKN120,0.00,VWS V14.01,2013-05-19 05:56:00,
2013-05-19 02:01:00,42.6,38.7,17.72,SSW,193,0.0,0.0,86,0.00,,OVC120,0.00,VWS V14.01,2013-05-19 06:01:00,
2013-05-19 02:06:00,42.6,38.7,17.72,SSW,193,0.0,0.0,86,0.00,,OVC120,0.00,VWS V14.01,2013-05-19 06:06:00,
2013-05-19 02:11:00,42.6,39.0,17.72,SSW,193,0.0,0.0,87,0.00,,OVC120,0.00,VWS V14.01,2013-05-19 06:11:00,
2013-05-19 02:16:00,42.8,38.9,17.72,SSW,193,0.0,0.0,86,0.00,,OVC120,0.00,VWS V14.01,2013-05-19 06:16:00,
2013-05-19 02:21:00,42.8,39.2,17.72,SSW,193,0.0,0.0,87,0.00,,OVC120,0.00,VWS V14.01,2013-05-19 06:21:00,
2013-05-19 02:26:00,43.0,39.4,17.72,SSW,193,0.0,0.0,87,0.00,,OVC120,0.00,VWS V14.01,2013-05-19 06:26:00,
2013-05-19 02:31:00,43.0,39.4,17.72,SSW,193,0.0,0.0,87,0.00,,OVC120,0.00,VWS V14.01,2013-05-19 06:31:00,
2013-05-19 02:36:00,43.0,39.4,17.72,SSW,193,0.0,0.0,87,0.00,,OVC120,0.00,VWS V14.01,2013-05-19 06:36:00,
2013-05-19 02:41:00,43.0,39.4,17.72,South,170,0.0,0.0,87,0.00,,OVC120,0.00,VWS V14.01,2013-05-19 06:41:00,
2013-05-19 02:46:00,43.0,39.4,17.72,South,170,0.0,0.0,87,0.00,,OVC120,0.00,VWS V14.01,2013-05-19 06:46:00,
2013-05-19 02:51:00,42.8,39.2,17.72,South,170,0.0,0.0,87,0.00,,OVC120,0.00,VWS V14.01,2013-05-19 06:51:00,
2013-05-19 02:56:00,42.6,39.3,17.72,South,170,0.0,0.0,88,0.00,,OVC120,0.00,VWS V14.01,2013-05-19 06:56:00,
2013-05-19 03:01:00,42.6,39.3,17.72,South,170,0.0,0.0,88,0.00,,OVC110,0.00,VWS V14.01,2013-05-19 07:01:00,
2013-05-19 03:06:00,42.4,39.1,17.72,South,170,0.0,0.0,88,0.00,,OVC110,0.00,VWS V14.01,2013-05-19 07:06:00,
2013-05-19 03:11:00,42.4,39.1,17.72,South,170,0.0,0.0,88,0.00,,OVC110,0.00,VWS V14.01,2013-05-19 07:11:00,
2013-05-19 03:16:00,42.4,39.4,17.72,South,170,0.0,0.0,89,0.00,,OVC110,0.00,VWS V14.01,2013-05-19 07:16:00,
2013-05-19 03:21:00,42.4,39.4,17.72,South,170,0.0,0.0,89,0.00,,OVC110,0.00,VWS V14.01,2013-05-19 07:21:00,
2013-05-19 03:26:00,42.6,39.6,17.72,South,170,0.0,0.0,89,0.00,,OVC110,0.00,VWS V14.01,2013-05-19 07:26:00,
2013-05-19 03:31:00,42.8,39.8,17.72,South,170,0.0,0.0,89,0.00,,OVC110,0.00,VWS V14.01,2013-05-19 07:31:00,
2013-05-19 03:36:00,43.0,40.0,17.72,South,170,0.0,0.0,89,0.00,,OVC110,0.00,VWS V14.01,2013-05-19 07:36:00,
2013-05-19 03:41:00,43.2,40.1,17.72,South,170,0.0,0.0,89,0.00,,OVC110,0.00,VWS V14.01,2013-05-19 07:41:00,
2013-05-19 03:46:00,43.3,40.6,17.72,South,170,0.0,0.0,90,0.00,,OVC110,0.00,VWS V14.01,2013-05-19 07:46:00,
2013-05-19 03:51:00,43.5,40.8,17.72,South,170,0.0,0.0,90,0.00,,OVC110,0.00,VWS V14.01,2013-05-19 07:51:00,
2013-05-19 03:56:00,43.5,40.8,17.72,South,170,0.0,0.0,90,0.00,,OVC110,0.00,VWS V14.01,2013-05-19 07:56:00,
2013-05-19 04:01:00,43.5,40.8,17.72,South,170,0.0,0.0,90,0.00,,OVC016,0.00,VWS V14.01,2013-05-19 08:01:00,
2013-05-19 04:06:00,43.7,41.0,17.72,South,170,0.0,0.0,90,0.00,,OVC016,0.00,VWS V14.01,2013-05-19 08:06:00,
2013-05-19 04:11:00,43.7,41.2,17.72,South,170,0.0,0.0,91,0.00,,OVC016,0.00,VWS V14.01,2013-05-19 08:11:00,
2013-05-19 04:16:00,44.1,41.6,17.72,South,170,0.0,0.0,91,0.00,,OVC016,0.00,VWS V14.01,2013-05-19 08:16:00,
2013-05-19 04:21:00,44.1,41.6,17.72,South,170,0.0,0.0,91,0.00,,OVC016,0.00,VWS V14.01,2013-05-19 08:21:00,
2013-05-19 04:26:00,44.1,41.6,17.72,South,170,0.0,0.0,91,0.00,,OVC016,0.00,VWS V14.01,2013-05-19 08:26:00,
2013-05-19 04:31:00,44.1,41.6,17.72,South,170,0.0,0.0,91,0.00,,OVC016,0.00,VWS V14.01,2013-05-19 08:31:00,
2013-05-19 04:36:00,44.1,41.6,17.72,South,170,0.0,0.0,91,0.00,,OVC016,0.00,VWS V14.01,2013-05-19 08:36:00,
2013-05-19 04:41:00,44.2,42.1,17.72,South,170,0.0,0.0,92,0.00,,OVC016,0.00,VWS V14.01,2013-05-19 08:41:00,
2013-05-19 04:46:00,44.2,42.1,17.72,South,170,0.0,0.0,92,0.00,,OVC016,0.00,VWS V14.01,2013-05-19 08:46:00,
2013-05-19 04:51:00,44.2,42.1,17.72,South,170,0.0,0.0,92,0.00,,OVC016,0.00,VWS V14.01,2013-05-19 08:51:00,
2013-05-19 04:56:00,44.4,42.2,17.72,South,170,0.0,0.0,92,0.00,,OVC016,0.00,VWS V14.01,2013-05-19 08:56:00,
2013-05-19 05:01:00,44.6,42.4,17.72,South,170,0.0,0.0,92,0.00,,OVC016,0.00,VWS V14.01,2013-05-19 09:01:00,
2013-05-19 05:06:00,44.6,42.4,17.72,South,170,0.0,0.0,92,0.00,,OVC016,0.00,VWS V14.01,2013-05-19 09:06:00,
2013-05-19 05:11:00,44.8,42.6,17.72,South,170,0.0,0.0,92,0.00,,OVC016,0.00,VWS V14.01,2013-05-19 09:11:00,
2013-05-19 05:16:00,44.8,42.6,17.72,South,170,0.0,0.0,92,0.00,,OVC016,0.00,VWS V14.01,2013-05-19 09:16:00,
2013-05-19 05:21:00,45.0,42.8,17.72,South,170,0.0,0.0,92,0.00,,OVC016,0.00,VWS V14.01,2013-05-19 09:21:00,
2013-05-19 05:26:00,45.1,43.0,17.72,South,170,0.0,0.0,92,0.00,,OVC016,0.00,VWS V14.01,2013-05-19 09:26:00,
2013-05-19 05:31:00,45.1,43.0,17.72,South,170,0.0,0.0,92,0.00,,OVC016,0.00,VWS V14.01,2013-05-19 09:31:00,
2013-05-19 05:36:00,45.3,43.1,17.72,South,170,0.0,0.0,92,0.00,,OVC016,0.00,VWS V14.01,2013-05-19 09:36:00,
2013-05-19 05:41:00,45.5,43.3,17.72,South,170,0.0,0.0,92,0.00,,OVC016,0.00,VWS V14.01,2013-05-19 09:41:00,
2013-05-19 05:46:00,45.5,43.6,17.72,South,170,0.0,0.0,93,0.00,,OVC016,0.00,VWS V14.01,2013-05-19 09:46:00,
2013-05-19 05:51:00,45.7,43.8,17.72,South,170,0.0,0.0,93,0.00,,OVC016,0.00,VWS V14.01,2013-05-19 09:51:00,
2013-05-19 05:56:00,45.9,43.7,17.72,South,170,0.0,0.0,92,0.00,,OVC016,0.00,VWS V14.01,2013-05-19 09:56:00,
2013-05-19 06:01:00,45.9,44.0,17.72,South,170,0.0,0.0,93,0.00,,OVC016,0.00,VWS V14.01,2013-05-19 10:01:00,
2013-05-19 06:06:00,46.0,44.1,17.72,South,170,0.0,0.0,93,0.00,,OVC016,0.00,VWS V14.01,2013-05-19 10:06:00,
2013-05-19 06:11:00,46.2,44.3,17.72,South,170,0.0,0.0,93,0.00,,OVC016,0.00,VWS V14.01,2013-05-19 10:11:00,
2013-05-19 06:16:00,46.4,44.2,17.72,South,170,0.0,0.0,92,0.00,,OVC016,0.00,VWS V14.01,2013-05-19 10:16:00,
2013-05-19 06:21:00,46.6,44.4,17.72,East,90,0.0,0.0,92,0.00,,OVC016,0.00,VWS V14.01,2013-05-19 10:21:00,
2013-05-19 06:26:00,46.8,44.6,17.72,East,90,0.0,0.0,92,0.00,,OVC016,0.00,VWS V14.01,2013-05-19 10:26:00,
2013-05-19 06:31:00,46.9,44.7,17.72,East,90,0.0,0.0,92,0.00,,OVC016,0.00,VWS V14.01,2013-05-19 10:31:00,
2013-05-19 06:36:00,47.1,44.9,17.72,East,90,0.0,0.0,92,0.00,,OVC016,0.00,VWS V14.01,2013-05-19 10:36:00,
2013-05-19 06:41:00,47.3,45.1,17.72,East,90,0.0,0.0,92,0.00,,OVC016,0.00,VWS V14.01,2013-05-19 10:41:00,
2013-05-19 06:46:00,47.5,45.3,17.72,East,90,0.0,0.0,92,0.00,,OVC016,0.00,VWS V14.01,2013-05-19 10:46:00,
2013-05-19 06:51:00,47.7,45.5,17.72,East,90,0.0,0.0,92,0.00,,OVC014,0.00,VWS V14.01,2013-05-19 10:51:00,
2013-05-19 06:56:00,48.0,45.5,17.72,East,90,0.0,0.0,91,0.00,,OVC014,0.00,VWS V14.01,2013-05-19 10:56:00,
2013-05-19 07:01:00,48.2,45.7,17.72,ENE,76,0.0,0.0,91,0.00,,OVC014,0.00,VWS V14.01,2013-05-19 11:01:00,
2013-05-19 07:06:00,48.4,45.6,17.72,East,97,0.0,0.0,90,0.00,,OVC014,0.00,VWS V14.01,2013-05-19 11:06:00,
2013-05-19 07:11:00,48.7,45.9,17.72,ESE,102,0.0,0.0,90,0.00,,OVC014,0.00,VWS V14.01,2013-05-19 11:11:00,
2013-05-19 07:16:00,48.9,45.8,17.72,ENE,68,0.0,0.0,89,0.00,,OVC014,0.00,VWS V14.01,2013-05-19 11:16:00,
2013-05-19 07:21:00,49.3,46.2,17.72,East,79,0.0,0.0,89,0.00,,OVC014,0.00,VWS V14.01,2013-05-19 11:21:00,
2013-05-19 07:26:00,49.5,46.1,17.72,ENE,69,0.0,0.0,88,0.00,,OVC014,0.00,VWS V14.01,2013-05-19 11:26:00,
2013-05-19 07:31:00,49.5,45.8,17.72,East,98,0.0,0.0,87,0.00,,OVC014,0.00,VWS V14.01,2013-05-19 11:31:00,
2013-05-19 07:36:00,49.6,45.6,17.72,ESE,115,0.0,0.0,86,0.00,,OVC014,0.00,VWS V14.01,2013-05-19 11:36:00,
2013-05-19 07:41:00,49.8,45.8,17.72,ESE,108,0.0,0.0,86,0.00,,OVC014,0.00,VWS V14.01,2013-05-19 11:41:00,
2013-05-19 07:46:00,50.0,45.7,17.72,ESE,105,0.0,0.0,85,0.00,,OVC014,0.00,VWS V14.01,2013-05-19 11:46:00,
2013-05-19 07:51:00,50.4,45.7,17.72,ENE,70,0.0,0.0,84,0.00,,OVC014,0.00,VWS V14.01,2013-05-19 11:51:00,
2013-05-19 07:56:00,50.5,45.6,17.72,NE,47,0.0,0.0,83,0.00,,OVC014,0.00,VWS V14.01,2013-05-19 11:56:00,
2013-05-19 08:01:00,50.7,45.4,17.72,ESE,104,0.0,0.0,82,0.00,,OVC016,0.00,VWS V14.01,2013-05-19 12:01:00,
2013-05-19 08:06:00,50.9,45.0,17.72,East,82,0.0,3.1,80,0.00,,OVC016,0.00,VWS V14.01,2013-05-19 12:06:00,
2013-05-19 08:11:00,50.9,44.6,17.72,WSW,245,0.0,0.0,79,0.00,,OVC016,0.00,VWS V14.01,2013-05-19 12:11:00,
2013-05-19 08:16:00,51.1,44.1,17.72,NNE,24,0.0,0.0,77,0.00,,OVC016,0.00,VWS V14.01,2013-05-19 12:16:00,
2013-05-19 08:21:00,51.6,44.3,17.72,ENE,68,6.3,6.3,76,0.00,,OVC016,0.00,VWS V14.01,2013-05-19 12:21:00,
2013-05-19 08:26:00,51.6,44.0,17.72,East,96,0.0,0.0,75,0.00,,OVC016,0.00,VWS V14.01,2013-05-19 12:26:00,
2013-05-19 08:31:00,51.6,43.3,17.72,SE,132,0.0,0.0,73,0.00,,OVC016,0.00,VWS V14.01,2013-05-19 12:31:00,
2013-05-19 08:36:00,51.8,43.1,17.72,SE,128,0.0,0.0,72,0.00,,OVC016,0.00,VWS V14.01,2013-05-19 12:36:00,
2013-05-19 08:41:00,52.2,43.4,17.72,ENE,69,4.5,4.5,72,0.00,,OVC016,0.00,VWS V14.01,2013-05-19 12:41:00,
2013-05-19 08:46:00,52.3,43.2,17.72,ENE,74,0.0,0.0,71,0.00,,OVC016,0.00,VWS V14.01,2013-05-19 12:46:00,
2013-05-19 08:51:00,52.7,43.2,17.72,East,90,0.0,3.1,70,0.00,,OVC016,0.00,VWS V14.01,2013-05-19 12:51:00,
2013-05-19 08:56:00,52.7,42.5,17.72,East,79,0.0,2.7,68,0.00,,OVC016,0.00,VWS V14.01,2013-05-19 12:56:00,
2013-05-19 09:00:00,52.7,42.1,17.72,ESE,104,0.0,0.0,67,0.00,,OVC018,0.00,VWS V14.01,2013-05-19 13:00:00,
2013-05-19 09:05:00,52.9,42.2,17.72,WNW,287,0.0,3.6,67,0.00,,OVC018,0.00,VWS V14.01,2013-05-19 13:05:00,
2013-05-19 09:10:00,53.2,42.6,17.72,South,178,0.0,0.0,67,0.00,,OVC018,0.00,VWS V14.01,2013-05-19 13:10:00,
2013-05-19 09:15:00,53.8,42.7,17.72,ESE,122,0.0,2.2,66,0.00,,OVC018,0.00,VWS V14.01,2013-05-19 13:15:00,
2013-05-19 09:20:00,53.8,41.1,17.72,SSE,159,0.0,3.1,62,0.00,,OVC018,0.00,VWS V14.01,2013-05-19 13:20:00,
2013-05-19 09:25:00,53.8,40.7,17.72,SW,234,0.0,0.0,61,0.00,,OVC018,0.00,VWS V14.01,2013-05-19 13:25:00,
2013-05-19 09:30:00,54.0,40.4,17.72,SSW,207,6.3,6.3,60,0.00,,OVC018,0.00,VWS V14.01,2013-05-19 13:30:00,
2013-05-19 09:35:00,54.1,39.7,17.72,ESE,118,5.4,5.4,58,0.00,,OVC018,0.00,VWS V14.01,2013-05-19 13:35:00,
2013-05-19 09:40:00,54.3,40.3,17.72,East,89,0.0,0.0,59,0.00,,OVC018,0.00,VWS V14.01,2013-05-19 13:40:00,
2013-05-19 09:45:00,54.5,40.5,17.72,East,89,0.0,4.0,59,0.00,,OVC018,0.00,VWS V14.01,2013-05-19 13:45:00,
2013-05-19 09:50:00,54.7,40.7,17.72,ESE,110,0.0,0.0,59,0.00,,OVC018,0.00,VWS V14.01,2013-05-19 13:50:00,
2013-05-19 09:55:00,55.0,41.0,17.72,East,82,0.0,0.0,59,0.00,,OVC018,0.00,VWS V14.01,2013-05-19 13:55:00,
2013-05-19 10:00:00,55.4,40.4,17.72,SE,126,0.0,0.0,57,0.00,,OVC018,0.00,VWS V14.01,2013-05-19 14:00:00,
2013-05-19 10:05:00,55.6,40.6,17.72,ENE,71,4.5,4.5,57,0.00,,OVC018,0.00,VWS V14.01,2013-05-19 14:05:00,
2013-05-19 10:10:00,56.7,41.6,17.72,NE,43,6.3,6.3,57,0.00,,OVC018,0.00,VWS V14.01,2013-05-19 14:10:00,
2013-05-19 10:15:00,57.0,40.1,17.72,WSW,250,0.0,2.7,53,0.00,,OVC018,0.00,VWS V14.01,2013-05-19 14:15:00,
2013-05-19 10:20:00,57.6,40.1,17.72,NE,36,4.5,4.5,52,0.00,,OVC018,0.00,VWS V14.01,2013-05-19 14:20:00,
2013-05-19 10:25:00,58.1,41.6,17.72,ESE,104,6.3,6.3,54,0.00,,OVC018,0.00,VWS V14.01,2013-05-19 14:25:00,
2013-05-19 10:30:00,57.6,39.1,17.72,North,5,0.0,0.0,50,0.00,,OVC018,0.00,VWS V14.01,2013-05-19 14:30:00,
2013-05-19 10:35:00,57.0,38.1,17.72,West,271,0.0,0.0,49,0.00,,OVC018,0.00,VWS V14.01,2013-05-19 14:35:00,
2013-05-19 10:40:00,57.2,39.2,17.72,WNW,295,7.2,7.2,51,0.00,,OVC018,0.00,VWS V14.01,2013-05-19 14:40:00,
2013-05-19 10:45:00,58.1,40.6,17.72,ENE,63,0.0,0.0,52,0.00,,OVC018,0.00,VWS V14.01,2013-05-19 14:45:00,
2013-05-19 10:51:00,59.0,39.9,17.72,ESE,123,0.0,3.1,49,0.00,,OVC018,0.00,VWS V14.01,2013-05-19 14:51:00,
2013-05-19 10:56:00,60.3,40.5,17.72,SE,135,0.0,0.0,48,0.00,,OVC018,0.00,VWS V14.01,2013-05-19 14:56:00,
2013-05-19 11:01:00,61.2,40.2,17.72,SE,130,6.3,6.3,46,0.00,,SCT022,0.00,VWS V14.01,2013-05-19 15:01:00,
2013-05-19 11:06:00,62.1,41.6,17.72,NNE,24,7.2,7.2,47,0.00,,SCT022,0.00,VWS V14.01,2013-05-19 15:06:00,
2013-05-19 11:11:00,62.8,40.6,17.72,SE,146,0.0,0.0,44,0.00,,SCT022,0.00,VWS V14.01,2013-05-19 15:11:00,
2013-05-19 11:16:00,62.8,40.0,17.72,South,180,0.0,0.0,43,0.00,,SCT022,0.00,VWS V14.01,2013-05-19 15:16:00,
2013-05-19 11:21:00,62.2,39.5,17.72,SE,145,0.0,2.7,43,0.00,,SCT022,0.00,VWS V14.01,2013-05-19 15:21:00,
2013-05-19 11:26:00,62.4,39.7,17.72,SSE,161,6.3,6.3,43,0.00,,SCT022,0.00,VWS V14.01,2013-05-19 15:26:00,
2013-05-19 11:31:00,62.6,40.4,17.72,NW,321,5.4,5.4,44,0.00,,SCT022,0.00,VWS V14.01,2013-05-19 15:31:00,
2013-05-19 11:36:00,62.8,40.6,17.72,ENE,77,0.0,0.0,44,0.00,,SCT022,0.00,VWS V14.01,2013-05-19 15:36:00,
2013-05-19 11:41:00,62.8,41.2,17.72,ENE,58,6.3,6.3,45,0.00,,SCT022,0.00,VWS V14.01,2013-05-19 15:41:00,
2013-05-19 11:46:00,62.4,41.4,17.72,ESE,105,6.3,6.3,46,0.00,,SCT022,0.00,VWS V14.01,2013-05-19 15:46:00,
2013-05-19 11:51:00,62.6,41.5,17.72,NE,34,7.2,7.2,46,0.00,,SCT022,0.00,VWS V14.01,2013-05-19 15:51:00,
2013-05-19 11:56:00,63.0,39.5,17.72,NE,50,5.4,5.4,42,0.00,,SCT022,0.00,VWS V14.01,2013-05-19 15:56:00,
2013-05-19 12:01:00,63.1,40.9,17.72,NNE,20,0.0,0.0,44,0.00,,SCT022,0.00,VWS V14.01,2013-05-19 16:01:00,
2013-05-19 12:06:00,63.7,41.4,17.72,SE,135,0.0,2.2,44,0.00,,SCT022,0.00,VWS V14.01,2013-05-19 16:06:00,
2013-05-19 12:11:00,63.9,40.3,17.72,SSE,149,6.3,6.3,42,0.00,,CLR,0.00,VWS V14.01,2013-05-19 16:11:00,
2013-05-19 12:16:00,63.5,40.6,17.72,SE,133,8.1,8.1,43,0.00,,CLR,0.00,VWS V14.01,2013-05-19 16:16:00,
2013-05-19 12:21:00,63.9,39.7,17.72,SE,140,5.4,5.4,41,0.00,,CLR,0.00,VWS V14.01,2013-05-19 16:21:00,
2013-05-19 12:26:00,64.0,39.2,17.72,SW,216,0.0,2.2,40,0.00,,CLR,0.00,VWS V14.01,2013-05-19 16:26:00,
2013-05-19 12:31:00,63.9,39.1,17.72,West,264,5.4,5.4,40,0.00,,CLR,0.00,VWS V14.01,2013-05-19 16:31:00,
2013-05-19 12:36:00,63.7,39.6,17.72,ESE,116,6.3,6.3,41,0.00,,CLR,0.00,VWS V14.01,2013-05-19 16:36:00,
2013-05-19 12:41:00,64.2,41.9,17.72,East,86,6.3,6.3,44,0.00,,CLR,0.00,VWS V14.01,2013-05-19 16:41:00,
2013-05-19 12:46:00,64.4,42.0,17.72,NNE,23,0.0,0.0,44,0.00,,CLR,0.00,VWS V14.01,2013-05-19 16:46:00,
2013-05-19 12:51:00,64.4,41.4,17.72,East,79,5.4,5.4,43,0.00,,CLR,0.00,VWS V14.01,2013-05-19 16:51:00,
2013-05-19 12:56:00,64.2,42.5,17.72,NNE,22,5.4,5.4,45,0.00,,CLR,0.00,VWS V14.01,2013-05-19 16:56:00,
2013-05-19 13:01:00,64.6,42.2,17.72,South,182,8.1,8.1,44,0.00,,CLR,0.00,VWS V14.01,2013-05-19 17:01:00,
2013-05-19 13:06:00,64.8,39.9,17.72,ESE,118,5.4,5.4,40,0.00,,CLR,0.00,VWS V14.01,2013-05-19 17:06:00,
2013-05-19 13:11:00,64.9,41.9,17.72,SE,126,5.4,5.4,43,0.00,,CLR,0.00,VWS V14.01,2013-05-19 17:11:00,
2013-05-19 13:16:00,65.5,41.8,17.72,SE,125,0.0,0.0,42,0.00,,CLR,0.00,VWS V14.01,2013-05-19 17:16:00,
2013-05-19 13:21:00,65.5,42.4,17.72,East,83,0.0,0.0,43,0.00,,CLR,0.00,VWS V14.01,2013-05-19 17:21:00,
2013-05-19 13:26:00,65.3,42.2,17.72,SSE,158,5.4,5.4,43,0.00,,CLR,0.00,VWS V14.01,2013-05-19 17:26:00,
2013-05-19 13:31:00,65.3,40.4,17.72,East,100,5.4,5.4,40,0.00,,CLR,0.00,VWS V14.01,2013-05-19 17:31:00,
2013-05-19 13:36:00,65.5,42.4,17.72,SW,225,6.3,6.3,43,0.00,,CLR,0.00,VWS V14.01,2013-05-19 17:36:00,
2013-05-19 13:41:00,65.7,42.6,17.72,ESE,110,6.3,6.3,43,0.00,,CLR,0.00,VWS V14.01,2013-05-19 17:41:00,
2013-05-19 13:46:00,65.7,40.7,17.72,ESE,121,6.3,6.3,40,0.00,,CLR,0.00,VWS V14.01,2013-05-19 17:46:00,
2013-05-19 13:51:00,65.7,42.6,17.72,NNE,28,4.5,4.5,43,0.00,,CLR,0.00,VWS V14.01,2013-05-19 17:51:00,
2013-05-19 13:56:00,65.8,41.5,17.72,ESE,106,0.0,2.2,41,0.00,,CLR,0.00,VWS V14.01,2013-05-19 17:56:00,
2013-05-19 14:01:00,66.0,41.0,17.72,ESE,109,5.4,5.4,40,0.00,,CLR,0.00,VWS V14.01,2013-05-19 18:01:00,
2013-05-19 14:06:00,65.8,42.1,17.72,ENE,62,5.4,5.4,42,0.00,,CLR,0.00,VWS V14.01,2013-05-19 18:06:00,
2013-05-19 14:11:00,65.3,42.2,17.72,SE,129,6.3,6.3,43,0.00,,CLR,0.00,VWS V14.01,2013-05-19 18:11:00,
2013-05-19 14:16:00,64.8,41.8,17.72,East,94,0.0,3.1,43,0.00,,CLR,0.00,VWS V14.01,2013-05-19 18:16:00,
2013-05-19 14:21:00,64.2,41.9,17.72,East,95,0.0,0.0,44,0.00,,CLR,0.00,VWS V14.01,2013-05-19 18:21:00,
2013-05-19 14:26:00,64.4,40.8,17.72,SSE,149,5.4,5.4,42,0.00,,CLR,0.00,VWS V14.01,2013-05-19 18:26:00,
2013-05-19 14:31:00,64.9,41.9,17.72,ENE,58,8.1,8.1,43,0.00,,CLR,0.00,VWS V14.01,2013-05-19 18:31:00,
2013-05-19 14:36:00,64.9,41.3,17.72,ENE,73,6.3,6.3,42,0.00,,CLR,0.00,VWS V14.01,2013-05-19 18:36:00,
2013-05-19 14:41:00,64.2,41.3,17.72,SSE,155,0.0,0.0,43,0.00,,CLR,0.00,VWS V14.01,2013-05-19 18:41:00,
2013-05-19 14:46:00,63.9,39.1,17.72,SE,138,8.1,8.1,40,0.00,,CLR,0.00,VWS V14.01,2013-05-19 18:46:00,
2013-05-19 14:51:00,63.7,40.2,17.72,East,86,0.0,4.0,42,0.00,,CLR,0.00,VWS V14.01,2013-05-19 18:51:00,
2013-05-19 14:56:00,63.3,41.1,17.72,SE,127,6.3,6.3,44,0.00,,CLR,0.00,VWS V14.01,2013-05-19 18:56:00,
2013-05-19 15:01:00,63.0,40.1,17.72,ESE,112,0.0,2.7,43,0.00,,CLR,0.00,VWS V14.01,2013-05-19 19:01:00,
2013-05-19 15:06:00,62.8,41.2,17.72,ESE,121,0.0,2.7,45,0.00,,CLR,0.00,VWS V14.01,2013-05-19 19:06:00,
2013-05-19 15:11:00,63.0,41.3,17.72,East,84,5.4,5.4,45,0.00,,CLR,0.00,VWS V14.01,2013-05-19 19:11:00,
2013-05-19 15:16:00,63.0,40.7,17.72,SSW,202,5.4,5.4,44,0.00,,CLR,0.00,VWS V14.01,2013-05-19 19:16:00,
2013-05-19 15:21:00,62.6,40.4,17.72,ESE,115,5.4,5.4,44,0.00,,CLR,0.00,VWS V14.01,2013-05-19 19:21:00,
2013-05-19 15:26:00,62.4,40.8,17.72,South,187,0.0,2.2,45,0.00,,CLR,0.00,VWS V14.01,2013-05-19 19:26:00,
2013-05-19 15:31:00,62.2,40.7,17.72,East,92,8.1,8.1,45,0.00,,CLR,0.00,VWS V14.01,2013-05-19 19:31:00,
2013-05-19 15:36:00,61.9,39.8,17.72,SW,216,4.5,4.5,44,0.00,,CLR,0.00,VWS V14.01,2013-05-19 19:36:00,
2013-05-19 15:41:00,61.2,39.7,17.72,SE,145,0.0,2.7,45,0.00,,CLR,0.00,VWS V14.01,2013-05-19 19:41:00,
2013-05-19 15:46:00,60.8,39.9,17.72,ENE,76,4.5,4.5,46,0.00,,CLR,0.00,VWS V14.01,2013-05-19 19:46:00,
2013-05-19 15:51:00,60.6,40.3,17.72,South,172,0.0,0.0,47,0.00,,CLR,0.00,VWS V14.01,2013-05-19 19:51:00,
2013-05-19 15:56:00,60.4,40.1,17.72,NE,49,0.0,2.7,47,0.00,,CLR,0.00,VWS V14.01,2013-05-19 19:56:00,
2013-05-19 16:01:00,60.3,40.5,17.72,SSW,196,4.5,4.5,48,0.00,,CLR,0.00,VWS V14.01,2013-05-19 20:01:00,
2013-05-19 16:06:00,60.3,41.0,17.72,SE,127,5.4,5.4,49,0.00,,CLR,0.00,VWS V14.01,2013-05-19 20:06:00,
2013-05-19 16:11:00,60.1,40.9,17.72,ESE,109,0.0,0.0,49,0.00,,CLR,0.00,VWS V14.01,2013-05-19 20:11:00,
2013-05-19 16:16:00,59.7,40.5,17.72,East,85,7.2,7.2,49,0.00,,CLR,0.00,VWS V14.01,2013-05-19 20:16:00,
2013-05-19 16:21:00,59.4,40.7,17.72,East,90,6.3,6.3,50,0.00,,CLR,0.00,VWS V14.01,2013-05-19 20:21:00,
2013-05-19 16:26:00,59.0,40.4,17.72,East,96,7.2,7.2,50,0.00,,CLR,0.00,VWS V14.01,2013-05-19 20:26:00,
2013-05-19 16:31:00,58.5,40.4,17.72,East,91,0.0,3.6,51,0.00,,CLR,0.00,VWS V14.01,2013-05-19 20:31:00,
2013-05-19 16:36:00,58.1,40.1,17.72,East,101,0.0,3.1,51,0.00,,CLR,0.00,VWS V14.01,2013-05-19 20:36:00,
2013-05-19 16:41:00,57.9,40.4,17.72,ENE,75,0.0,0.0,52,0.00,,CLR,0.00,VWS V14.01,2013-05-19 20:41:00,
2013-05-19 16:46:00,57.9,40.9,17.72,East,86,6.3,6.3,53,0.00,,CLR,0.00,VWS V14.01,2013-05-19 20:46:00,
2013-05-19 16:51:00,57.2,40.2,17.72,East,85,5.4,5.4,53,0.00,,CLR,0.00,VWS V14.01,2013-05-19 20:51:00,
2013-05-19 16:56:00,56.7,40.2,17.72,ESE,108,5.4,5.4,54,0.00,,CLR,0.00,VWS V14.01,2013-05-19 20:56:00,
2013-05-19 17:01:00,56.3,40.4,17.72,ENE,71,4.5,6.3,55,0.00,,CLR,0.00,VWS V14.01,2013-05-19 21:01:00,
2013-05-19 17:06:00,56.3,40.8,17.72,ENE,58,0.0,0.0,56,0.00,,CLR,0.00,VWS V14.01,2013-05-19 21:06:00,
2013-05-19 17:11:00,56.3,41.3,17.72,ESE,116,7.2,7.2,57,0.00,,CLR,0.00,VWS V14.01,2013-05-19 21:11:00,
2013-05-19 17:16:00,56.3,41.3,17.72,ESE,119,5.4,5.4,57,0.00,,CLR,0.00,VWS V14.01,2013-05-19 21:16:00,
2013-05-19 17:21:00,56.5,41.5,17.72,WSW,238,0.0,0.0,57,0.00,,CLR,0.00,VWS V14.01,2013-05-19 21:21:00,
2013-05-19 17:26:00,56.5,41.5,17.72,ESE,105,7.2,7.2,57,0.00,,CLR,0.00,VWS V14.01,2013-05-19 21:26:00,
2013-05-19 17:31:00,56.3,41.3,17.72,SSE,151,0.0,2.2,57,0.00,,CLR,0.00,VWS V14.01,2013-05-19 21:31:00,
2013-05-19 17:36:00,55.9,40.9,17.72,SE,143,0.0,0.0,57,0.00,,CLR,0.00,VWS V14.01,2013-05-19 21:36:00,
2013-05-19 17:41:00,55.6,41.0,17.72,East,99,4.5,4.5,58,0.00,,CLR,0.00,VWS V14.01,2013-05-19 21:41:00,
2013-05-19 17:46:00,55.4,42.2,17.72,East,86,5.4,5.4,61,0.00,,CLR,0.00,VWS V14.01,2013-05-19 21:46:00,
2013-05-19 17:51:00,55.2,42.0,17.72,ESE,104,5.4,5.4,61,0.00,,CLR,0.00,VWS V14.01,2013-05-19 21:51:00,
2013-05-19 17:56:00,55.0,42.3,17.72,East,101,6.3,6.3,62,0.00,,CLR,0.00,VWS V14.01,2013-05-19 21:56:00,
2013-05-19 18:01:00,54.7,42.3,17.72,NE,45,4.5,4.5,63,0.00,,CLR,0.00,VWS V14.01,2013-05-19 22:01:00,
2013-05-19 18:06:00,54.5,42.2,17.72,ESE,118,4.5,4.5,63,0.00,,CLR,0.00,VWS V14.01,2013-05-19 22:06:00,
2013-05-19 18:11:00,54.5,42.2,17.72,East,100,8.1,8.1,63,0.00,,CLR,0.00,VWS V14.01,2013-05-19 22:11:00,
2013-05-19 18:16:00,54.3,42.0,17.72,ESE,118,0.0,0.0,63,0.00,,CLR,0.00,VWS V14.01,2013-05-19 22:16:00,
2013-05-19 18:21:00,54.0,41.7,17.72,East,80,0.0,0.0,63,0.00,,CLR,0.00,VWS V14.01,2013-05-19 22:21:00,
2013-05-19 18:26:00,53.4,42.0,17.72,ENE,71,7.2,7.2,65,0.00,,CLR,0.00,VWS V14.01,2013-05-19 22:26:00,
2013-05-19 18:31:00,53.1,41.6,17.72,NW,312,0.0,2.7,65,0.00,,CLR,0.00,VWS V14.01,2013-05-19 22:31:00,
2013-05-19 18:36:00,52.7,41.7,17.72,East,89,6.3,6.3,66,0.00,,CLR,0.00,VWS V14.01,2013-05-19 22:36:00,
2013-05-19 18:41:00,52.3,41.7,17.72,East,94,4.5,4.5,67,0.00,,BKN012,0.00,VWS V14.01,2013-05-19 22:41:00,
2013-05-19 18:46:00,52.0,41.8,17.72,ESE,105,4.5,4.5,68,0.00,,BKN012,0.00,VWS V14.01,2013-05-19 22:46:00,
2013-05-19 18:51:00,51.8,42.0,17.72,East,87,4.5,4.5,69,0.00,,OVC010,0.00,VWS V14.01,2013-05-19 22:51:00,
2013-05-19 18:56:00,51.6,42.2,17.72,ESE,105,8.1,8.1,70,0.00,,OVC010,0.00,VWS V14.01,2013-05-19 22:56:00,
2013-05-19 19:01:00,51.4,42.4,17.72,ESE,116,5.4,5.4,71,0.00,,OVC007,0.00,VWS V14.01,2013-05-19 23:01:00,
2013-05-19 19:06:00,51.1,42.4,17.72,East,85,7.2,7.2,72,0.00,,OVC007,0.00,VWS V14.01,2013-05-19 23:06:00,
2013-05-19 19:11:00,50.7,42.0,17.72,ENE,75,8.1,8.1,72,0.00,,OVC007,0.00,VWS V14.01,2013-05-19 23:11:00,
2013-05-19 19:16:00,50.5,42.2,17.72,ESE,105,8.1,8.1,73,0.00,,OVC007,0.00,VWS V14.01,2013-05-19 23:16:00,
2013-05-19 19:21:00,50.5,42.6,17.72,ESE,103,0.0,0.0,74,0.00,,OVC007,0.00,VWS V14.01,2013-05-19 23:21:00,
2013-05-19 19:26:00,50.5,42.6,17.72,ESE,107,0.0,0.0,74,0.00,,OVC007,0.00,VWS V14.01,2013-05-19 23:26:00,
2013-05-19 19:31:00,50.4,42.4,17.72,ESE,108,0.0,0.0,74,0.00,,OVC007,0.00,VWS V14.01,2013-05-19 23:31:00,
2013-05-19 19:36:00,50.4,42.8,17.72,ESE,104,5.4,5.4,75,0.00,,OVC007,0.00,VWS V14.01,2013-05-19 23:36:00,
2013-05-19 19:41:00,50.4,42.8,17.72,ESE,121,0.0,0.0,75,0.00,,OVC007,0.00,VWS V14.01,2013-05-19 23:41:00,
2013-05-19 19:46:00,50.2,42.9,17.72,ESE,121,0.0,0.0,76,0.00,,OVC007,0.00,VWS V14.01,2013-05-19 23:46:00,
2013-05-19 19:51:00,50.2,42.9,17.72,East,99,0.0,0.0,76,0.00,,OVC007,0.00,VWS V14.01,2013-05-19 23:51:00,
2013-05-19 19:56:00,50.2,43.3,17.72,ESE,112,0.0,0.0,77,0.00,,OVC007,0.00,VWS V14.01,2013-05-19 23:56:00,
2013-05-19 20:01:00,50.2,43.6,17.72,ENE,72,5.4,5.4,78,0.00,,OVC005,0.00,VWS V14.01,2013-05-20 00:01:00,
2013-05-19 20:06:00,50.2,43.9,17.72,ENE,69,0.0,0.0,79,0.00,,OVC005,0.00,VWS V14.01,2013-05-20 00:06:00,
2013-05-19 20:11:00,50.0,44.1,17.72,ESE,108,0.0,3.6,80,0.00,,OVC003,0.00,VWS V14.01,2013-05-20 00:11:00,
2013-05-19 20:16:00,50.0,44.1,17.72,East,94,4.5,4.5,80,0.00,,OVC003,0.00,VWS V14.01,2013-05-20 00:16:00,
2013-05-19 20:21:00,49.8,44.2,17.72,SSE,154,0.0,0.0,81,0.00,,OVC003,0.00,VWS V14.01,2013-05-20 00:21:00,
2013-05-19 20:26:00,49.8,44.5,17.72,SE,140,7.2,7.2,82,0.00,,OVC003,0.00,VWS V14.01,2013-05-20 00:26:00,
2013-05-19 20:31:00,49.8,44.5,17.72,ENE,75,5.4,5.4,82,0.00,,OVC003,0.00,VWS V14.01,2013-05-20 00:31:00,
2013-05-19 20:36:00,49.6,44.7,17.72,SE,128,8.1,8.1,83,0.00,,OVC003,0.00,VWS V14.01,2013-05-20 00:36:00,
2013-05-19 20:41:00,49.6,45.0,17.72,NE,50,4.5,4.5,84,0.00,,OVC003,0.00,VWS V14.01,2013-05-20 00:41:00,
2013-05-19 20:46:00,49.5,44.8,17.72,SSW,211,0.0,0.0,84,0.00,,OVC003,0.00,VWS V14.01,2013-05-20 00:46:00,
2013-05-19 20:51:00,49.5,44.8,17.72,ESE,109,0.0,0.0,84,0.00,,OVC003,0.00,VWS V14.01,2013-05-20 00:51:00,
2013-05-19 20:56:00,49.5,45.2,17.72,East,96,0.0,0.0,85,0.00,,OVC003,0.00,VWS V14.01,2013-05-20 00:56:00,
2013-05-19 21:01:00,49.5,45.2,17.72,NE,40,0.0,0.0,85,0.00,,,0.00,VWS V14.01,2013-05-20 01:01:00,
2013-05-19 21:06:00,49.3,45.0,17.72,NE,36,6.3,6.3,85,0.00,,,0.00,VWS V14.01,2013-05-20 01:06:00,
2013-05-19 21:11:00,49.3,45.3,17.72,ESE,107,0.0,0.0,86,0.00,,,0.00,VWS V14.01,2013-05-20 01:11:00,
2013-05-19 21:16:00,49.3,45.3,17.72,ESE,119,0.0,0.0,86,0.00,,,0.00,VWS V14.01,2013-05-20 01:16:00,
2013-05-19 21:21:00,49.3,45.3,17.72,ENE,75,0.0,0.0,86,0.00,,,0.00,VWS V14.01,2013-05-20 01:21:00,
2013-05-19 21:26:00,49.3,45.6,17.72,SE,130,0.0,0.0,87,0.00,,,0.00,VWS V14.01,2013-05-20 01:26:00,
2013-05-19 21:31:00,49.3,45.6,17.72,SSE,147,6.3,6.3,87,0.00,,,0.00,VWS V14.01,2013-05-20 01:31:00,
2013-05-19 21:36:00,49.3,45.6,17.72,NW,317,0.0,0.0,87,0.00,,,0.00,VWS V14.01,2013-05-20 01:36:00,
2013-05-19 21:41:00,49.3,45.9,17.72,SE,131,0.0,0.0,88,0.00,,,0.00,VWS V14.01,2013-05-20 01:41:00,
2013-05-19 21:46:00,49.3,45.9,17.72,SSE,154,0.0,0.0,88,0.00,,,0.00,VWS V14.01,2013-05-20 01:46:00,
2013-05-19 21:51:00,49.3,45.9,17.72,South,176,0.0,3.6,88,0.00,,,0.00,VWS V14.01,2013-05-20 01:51:00,
2013-05-19 21:56:00,49.3,45.9,17.72,South,176,0.0,0.0,88,0.00,,,0.00,VWS V14.01,2013-05-20 01:56:00,
2013-05-19 22:01:00,49.3,46.2,17.72,South,176,0.0,0.0,89,0.00,,-RA,0.00,VWS V14.01,2013-05-20 02:01:00,
2013-05-19 22:06:00,49.5,46.4,17.72,East,101,0.0,0.0,89,0.00,,-RA,0.00,VWS V14.01,2013-05-20 02:06:00,
2013-05-19 22:11:00,49.3,46.2,17.72,East,101,0.0,0.0,89,0.00,,-RA,0.00,VWS V14.01,2013-05-20 02:11:00,
2013-05-19 22:16:00,49.5,46.4,17.72,West,272,0.0,0.0,89,0.00,,-RA,0.00,VWS V14.01,2013-05-20 02:16:00,
2013-05-19 22:21:00,49.5,46.4,17.72,South,178,0.0,0.0,89,0.00,,-RA,0.00,VWS V14.01,2013-05-20 02:21:00,
2013-05-19 22:26:00,49.5,46.4,17.72,South,186,0.0,0.0,89,0.00,,-RA,0.00,VWS V14.01,2013-05-20 02:26:00,
2013-05-19 22:31:00,49.5,46.4,17.72,WSW,257,0.0,0.0,89,0.00,,-RA,0.00,VWS V14.01,2013-05-20 02:31:00,
2013-05-19 22:36:00,49.5,46.4,17.72,NW,305,0.0,0.0,89,0.00,,-RA,0.00,VWS V14.01,2013-05-20 02:36:00,
2013-05-19 22:41:00,49.5,46.7,17.72,SW,222,0.0,0.0,90,0.00,,-RA,0.00,VWS V14.01,2013-05-20 02:41:00,
2013-05-19 22:46:00,49.5,46.7,17.72,SSE,151,0.0,0.0,90,0.00,,-RA,0.00,VWS V14.01,2013-05-20 02:46:00,
2013-05-19 22:51:00,49.5,46.7,17.72,SE,140,0.0,0.0,90,0.00,,-RA,0.00,VWS V14.01,2013-05-20 02:51:00,
2013-05-19 22:56:00,49.3,46.5,17.72,SW,227,0.0,0.0,90,0.00,,-RA,0.00,VWS V14.01,2013-05-20 02:56:00,
2013-05-19 23:01:00,49.3,46.5,17.72,SW,226,0.0,0.0,90,0.00,,-RA,0.00,VWS V14.01,2013-05-20 03:01:00,
2013-05-19 23:06:00,49.3,46.8,17.72,South,182,0.0,0.0,91,0.00,,-RA,0.00,VWS V14.01,2013-05-20 03:06:00,
2013-05-19 23:11:00,49.5,47.0,17.72,South,182,0.0,0.0,91,0.00,,-RA,0.00,VWS V14.01,2013-05-20 03:11:00,
2013-05-19 23:16:00,49.5,47.0,17.72,SE,139,0.0,0.0,91,0.00,,-RA,0.00,VWS V14.01,2013-05-20 03:16:00,
2013-05-19 23:21:00,49.5,47.0,17.72,SW,223,0.0,0.0,91,0.00,,-RA,0.00,VWS V14.01,2013-05-20 03:21:00,
2013-05-19 23:26:00,49.5,47.0,17.72,ESE,113,0.0,2.2,91,0.00,,-RA,0.00,VWS V14.01,2013-05-20 03:26:00,
2013-05-19 23:31:00,49.5,47.0,17.72,SE,128,5.4,5.4,91,0.00,,-RA,0.00,VWS V14.01,2013-05-20 03:31:00,
2013-05-19 23:36:00,49.5,47.2,17.72,ESE,107,0.0,0.0,92,0.00,,-RA,0.00,VWS V14.01,2013-05-20 03:36:00,
2013-05-19 23:41:00,49.5,47.2,17.72,SE,144,0.0,0.0,92,0.00,,-RA,0.00,VWS V14.01,2013-05-20 03:41:00,
2013-05-19 23:46:00,49.5,47.2,17.72,WSW,238,0.0,0.0,92,0.00,,-RA,0.00,VWS V14.01,2013-05-20 03:46:00,
2013-05-19 23:51:00,49.5,47.2,17.72,SW,230,0.0,0.0,92,0.00,,-RA,0.00,VWS V14.01,2013-05-20 03:51:00,
2013-05-19 23:56:00,49.5,47.2,17.72,West,270,0.0,0.0,92,0.00,,-RA,0.00,VWS V14.01,2013-05-20 03:56:00,